Terminal Aerodrome Forecast
Issued by NWS

Current Version | Previous Version | Text Only | Print | Product List | Glossary On
Versions: 1 2 3 4 5 6 7 8 9 10 11 12
000
FTUS44 KLUB 010500
TAFCDS
TAF
KCDS 010520Z 0106/0206 18017G27KT P6SM SKC
     FM011300 21013KT P6SM FEW100 FEW350=

USA.gov is the U.S. government's official web portal to all federal, state and local government web resources and services.